sensor_id;sensor_type;location;lat;lon;timestamp;temperature;humidity
32600;DHT22;19277;51.778;7.912;2023-03-01T00:01:16;20.60;77.60
32600;DHT22;19277;51.778;7.912;2023-03-01T00:03:42;20.60;77.60
32600;DHT22;19277;51.778;7.912;2023-03-01T00:06:08;20.60;77.70
32600;DHT22;19277;51.778;7.912;2023-03-01T00:08:35;20.50;77.60
32600;DHT22;19277;51.778;7.912;2023-03-01T00:11:10;20.50;77.60
32600;DHT22;19277;51.778;7.912;2023-03-01T00:13:37;20.50;77.60
32600;DHT22;19277;51.778;7.912;2023-03-01T00:16:11;20.50;77.70
32600;DHT22;19277;51.778;7.912;2023-03-01T00:18:38;20.50;78.20
32600;DHT22;19277;51.778;7.912;2023-03-01T00:21:04;20.50;78.40
32600;DHT22;19277;51.778;7.912;2023-03-01T00:23:31;20.50;78.50
32600;DHT22;19277;51.778;7.912;2023-03-01T00:25:57;20.50;78.60
32600;DHT22;19277;51.778;7.912;2023-03-01T00:28:23;20.50;78.60
32600;DHT22;19277;51.778;7.912;2023-03-01T00:30:49;20.60;78.70
32600;DHT22;19277;51.778;7.912;2023-03-01T00:33:14;20.60;78.70
32600;DHT22;19277;51.778;7.912;2023-03-01T00:35:40;20.60;78.60
32600;DHT22;19277;51.778;7.912;2023-03-01T00:38:06;20.60;78.50
32600;DHT22;19277;51.778;7.912;2023-03-01T00:40:33;20.60;78.50
32600;DHT22;19277;51.778;7.912;2023-03-01T00:42:59;20.60;78.50
32600;DHT22;19277;51.778;7.912;2023-03-01T00:45:25;20.70;78.60
32600;DHT22;19277;51.778;7.912;2023-03-01T00:47:51;20.60;78.50
32600;DHT22;19277;51.778;7.912;2023-03-01T00:50:18;20.60;78.40
32600;DHT22;19277;51.778;7.912;2023-03-01T00:52:44;20.70;78.50
32600;DHT22;19277;51.778;7.912;2023-03-01T00:55:10;20.70;78.50
32600;DHT22;19277;51.778;7.912;2023-03-01T00:57:35;20.70;78.50
32600;DHT22;19277;51.778;7.912;2023-03-01T01:00:01;20.70;78.50
32600;DHT22;19277;51.778;7.912;2023-03-01T01:02:28;20.70;78.50
32600;DHT22;19277;51.778;7.912;2023-03-01T01:04:53;20.70;78.60
32600;DHT22;19277;51.778;7.912;2023-03-01T01:07:19;20.70;78.60
32600;DHT22;19277;51.778;7.912;2023-03-01T01:09:47;20.70;78.50
32600;DHT22;19277;51.778;7.912;2023-03-01T01:12:13;20.70;78.50
32600;DHT22;19277;51.778;7.912;2023-03-01T01:14:38;20.70;79.00
32600;DHT22;19277;51.778;7.912;2023-03-01T01:17:04;20.70;78.50
32600;DHT22;19277;51.778;7.912;2023-03-01T01:19:30;20.70;78.40
32600;DHT22;19277;51.778;7.912;2023-03-01T01:21:55;20.70;78.40
32600;DHT22;19277;51.778;7.912;2023-03-01T01:24:21;20.70;78.40
32600;DHT22;19277;51.778;7.912;2023-03-01T01:26:47;20.70;78.40
32600;DHT22;19277;51.778;7.912;2023-03-01T01:29:13;20.70;78.30
32600;DHT22;19277;51.778;7.912;2023-03-01T01:31:40;20.70;78.30
32600;DHT22;19277;51.778;7.912;2023-03-01T01:34:08;20.70;78.30
32600;DHT22;19277;51.778;7.912;2023-03-01T01:36:37;20.70;78.30
32600;DHT22;19277;51.778;7.912;2023-03-01T01:39:03;20.70;78.30
32600;DHT22;19277;51.778;7.912;2023-03-01T01:41:29;20.70;78.20
32600;DHT22;19277;51.778;7.912;2023-03-01T01:49:38;20.70;78.30
32600;DHT22;19277;51.778;7.912;2023-03-01T01:52:27;20.70;78.30
32600;DHT22;19277;51.778;7.912;2023-03-01T01:54:57;20.70;78.40
32600;DHT22;19277;51.778;7.912;2023-03-01T01:57:40;20.70;78.30
32600;DHT22;19277;51.778;7.912;2023-03-01T02:00:20;20.70;78.30
32600;DHT22;19277;51.778;7.912;2023-03-01T02:02:48;20.70;78.30
32600;DHT22;19277;51.778;7.912;2023-03-01T02:05:36;20.70;78.30
32600;DHT22;19277;51.778;7.912;2023-03-01T02:08:03;20.70;78.30
32600;DHT22;19277;51.778;7.912;2023-03-01T02:10:32;20.70;78.30
32600;DHT22;19277;51.778;7.912;2023-03-01T02:12:58;20.70;78.40
32600;DHT22;19277;51.778;7.912;2023-03-01T02:15:25;20.70;78.30
32600;DHT22;19277;51.778;7.912;2023-03-01T02:17:52;20.70;78.40
32600;DHT22;19277;51.778;7.912;2023-03-01T02:22:50;20.70;78.30
32600;DHT22;19277;51.778;7.912;2023-03-01T02:28:08;20.70;78.30
32600;DHT22;19277;51.778;7.912;2023-03-01T02:30:35;20.70;78.30
32600;DHT22;19277;51.778;7.912;2023-03-01T02:33:03;20.70;78.30
32600;DHT22;19277;51.778;7.912;2023-03-01T02:35:35;20.70;78.40
32600;DHT22;19277;51.778;7.912;2023-03-01T02:38:01;20.70;78.40
32600;DHT22;19277;51.778;7.912;2023-03-01T02:40:31;20.70;78.60
32600;DHT22;19277;51.778;7.912;2023-03-01T02:42:58;20.70;78.40
32600;DHT22;19277;51.778;7.912;2023-03-01T02:45:25;20.70;78.40
32600;DHT22;19277;51.778;7.912;2023-03-01T02:47:54;20.70;78.40
32600;DHT22;19277;51.778;7.912;2023-03-01T02:55:54;20.70;78.50
32600;DHT22;19277;51.778;7.912;2023-03-01T02:58:20;20.60;78.40
32600;DHT22;19277;51.778;7.912;2023-03-01T03:00:46;20.70;78.50
32600;DHT22;19277;51.778;7.912;2023-03-01T03:03:16;20.60;78.40
32600;DHT22;19277;51.778;7.912;2023-03-01T03:05:42;20.60;78.40
32600;DHT22;19277;51.778;7.912;2023-03-01T03:08:08;20.60;78.30
32600;DHT22;19277;51.778;7.912;2023-03-01T03:10:36;20.60;78.30
32600;DHT22;19277;51.778;7.912;2023-03-01T03:13:11;20.60;78.50
32600;DHT22;19277;51.778;7.912;2023-03-01T03:15:37;20.70;78.50
32600;DHT22;19277;51.778;7.912;2023-03-01T03:18:06;20.60;78.60
32600;DHT22;19277;51.778;7.912;2023-03-01T03:20:32;20.60;78.60
32600;DHT22;19277;51.778;7.912;2023-03-01T03:22:58;20.60;78.80
32600;DHT22;19277;51.778;7.912;2023-03-01T03:25:25;20.60;78.80
32600;DHT22;19277;51.778;7.912;2023-03-01T03:27:52;20.60;78.90
32600;DHT22;19277;51.778;7.912;2023-03-01T03:30:23;20.50;78.90
32600;DHT22;19277;51.778;7.912;2023-03-01T03:32:49;20.50;79.00
32600;DHT22;19277;51.778;7.912;2023-03-01T03:35:26;20.50;79.00
32600;DHT22;19277;51.778;7.912;2023-03-01T03:37:53;20.50;78.90
32600;DHT22;19277;51.778;7.912;2023-03-01T03:40:30;20.50;78.90
32600;DHT22;19277;51.778;7.912;2023-03-01T03:42:56;20.50;78.90
32600;DHT22;19277;51.778;7.912;2023-03-01T03:45:21;20.50;79.00
32600;DHT22;19277;51.778;7.912;2023-03-01T03:47:47;20.50;79.00
32600;DHT22;19277;51.778;7.912;2023-03-01T03:50:14;20.50;78.90
32600;DHT22;19277;51.778;7.912;2023-03-01T03:52:40;20.50;78.90
32600;DHT22;19277;51.778;7.912;2023-03-01T03:55:07;20.50;79.00
32600;DHT22;19277;51.778;7.912;2023-03-01T03:57:40;20.50;79.10
32600;DHT22;19277;51.778;7.912;2023-03-01T04:00:10;20.50;79.10
32600;DHT22;19277;51.778;7.912;2023-03-01T04:02:42;20.50;79.20
32600;DHT22;19277;51.778;7.912;2023-03-01T04:05:10;20.50;79.20
32600;DHT22;19277;51.778;7.912;2023-03-01T04:07:37;20.40;79.10
32600;DHT22;19277;51.778;7.912;2023-03-01T04:10:04;20.50;79.10
32600;DHT22;19277;51.778;7.912;2023-03-01T04:12:30;20.50;79.10
32600;DHT22;19277;51.778;7.912;2023-03-01T04:14:56;20.50;79.20
32600;DHT22;19277;51.778;7.912;2023-03-01T04:17:21;20.40;79.10
32600;DHT22;19277;51.778;7.912;2023-03-01T04:19:47;20.50;78.90
32600;DHT22;19277;51.778;7.912;2023-03-01T04:22:14;20.40;78.70
32600;DHT22;19277;51.778;7.912;2023-03-01T04:24:44;20.40;78.70
32600;DHT22;19277;51.778;7.912;2023-03-01T04:27:11;20.40;78.80
32600;DHT22;19277;51.778;7.912;2023-03-01T04:29:37;20.40;78.80
32600;DHT22;19277;51.778;7.912;2023-03-01T04:32:03;20.40;78.90
32600;DHT22;19277;51.778;7.912;2023-03-01T04:34:29;20.40;78.90
32600;DHT22;19277;51.778;7.912;2023-03-01T04:36:55;20.40;78.90
32600;DHT22;19277;51.778;7.912;2023-03-01T04:39:21;20.30;78.90
32600;DHT22;19277;51.778;7.912;2023-03-01T04:41:47;20.30;78.90
32600;DHT22;19277;51.778;7.912;2023-03-01T04:44:12;20.30;79.00
32600;DHT22;19277;51.778;7.912;2023-03-01T04:46:38;20.30;79.00
32600;DHT22;19277;51.778;7.912;2023-03-01T04:49:04;20.30;79.10
32600;DHT22;19277;51.778;7.912;2023-03-01T04:51:30;20.30;79.20
32600;DHT22;19277;51.778;7.912;2023-03-01T04:53:57;20.30;79.20
32600;DHT22;19277;51.778;7.912;2023-03-01T04:56:23;20.30;79.20
32600;DHT22;19277;51.778;7.912;2023-03-01T04:58:49;20.30;79.30
32600;DHT22;19277;51.778;7.912;2023-03-01T05:01:17;20.30;79.40
32600;DHT22;19277;51.778;7.912;2023-03-01T05:03:44;20.30;79.50
32600;DHT22;19277;51.778;7.912;2023-03-01T05:06:10;20.30;79.40
32600;DHT22;19277;51.778;7.912;2023-03-01T05:08:38;20.20;79.50
32600;DHT22;19277;51.778;7.912;2023-03-01T05:11:04;20.30;79.60
32600;DHT22;19277;51.778;7.912;2023-03-01T05:13:29;20.30;79.60
32600;DHT22;19277;51.778;7.912;2023-03-01T05:15:57;20.20;79.60
32600;DHT22;19277;51.778;7.912;2023-03-01T05:18:25;20.20;79.60
32600;DHT22;19277;51.778;7.912;2023-03-01T05:20:55;20.20;79.70
32600;DHT22;19277;51.778;7.912;2023-03-01T05:23:24;20.20;79.50
32600;DHT22;19277;51.778;7.912;2023-03-01T05:25:49;20.20;79.60
32600;DHT22;19277;51.778;7.912;2023-03-01T05:28:18;20.20;79.60
32600;DHT22;19277;51.778;7.912;2023-03-01T05:30:45;20.20;79.70
32600;DHT22;19277;51.778;7.912;2023-03-01T05:33:11;20.20;79.70
32600;DHT22;19277;51.778;7.912;2023-03-01T05:35:42;20.20;79.80
32600;DHT22;19277;51.778;7.912;2023-03-01T05:38:12;20.20;79.90
32600;DHT22;19277;51.778;7.912;2023-03-01T05:40:41;20.20;80.00
32600;DHT22;19277;51.778;7.912;2023-03-01T05:43:07;20.20;79.90
32600;DHT22;19277;51.778;7.912;2023-03-01T05:45:33;20.20;80.00
32600;DHT22;19277;51.778;7.912;2023-03-01T05:48:00;20.10;80.00
32600;DHT22;19277;51.778;7.912;2023-03-01T05:50:28;20.20;80.20
32600;DHT22;19277;51.778;7.912;2023-03-01T05:53:04;20.20;80.30
32600;DHT22;19277;51.778;7.912;2023-03-01T05:55:34;20.20;80.30
32600;DHT22;19277;51.778;7.912;2023-03-01T05:58:02;20.10;80.30
32600;DHT22;19277;51.778;7.912;2023-03-01T06:00:29;20.20;80.50
32600;DHT22;19277;51.778;7.912;2023-03-01T06:02:56;20.10;80.40
32600;DHT22;19277;51.778;7.912;2023-03-01T06:05:22;20.10;80.40
32600;DHT22;19277;51.778;7.912;2023-03-01T06:07:48;20.10;80.40
32600;DHT22;19277;51.778;7.912;2023-03-01T06:10:16;20.20;80.40
32600;DHT22;19277;51.778;7.912;2023-03-01T06:12:42;20.10;80.30
32600;DHT22;19277;51.778;7.912;2023-03-01T06:15:11;20.10;80.30
32600;DHT22;19277;51.778;7.912;2023-03-01T06:17:38;20.10;80.20
32600;DHT22;19277;51.778;7.912;2023-03-01T06:20:07;20.10;80.10
32600;DHT22;19277;51.778;7.912;2023-03-01T06:22:33;20.10;80.10
32600;DHT22;19277;51.778;7.912;2023-03-01T06:24:59;20.10;80.10
32600;DHT22;19277;51.778;7.912;2023-03-01T06:27:25;20.10;80.00
32600;DHT22;19277;51.778;7.912;2023-03-01T06:29:50;20.10;80.00
32600;DHT22;19277;51.778;7.912;2023-03-01T06:32:16;20.10;80.00
32600;DHT22;19277;51.778;7.912;2023-03-01T06:34:41;20.20;80.00
32600;DHT22;19277;51.778;7.912;2023-03-01T06:37:07;20.10;80.40
32600;DHT22;19277;51.778;7.912;2023-03-01T06:39:33;20.10;79.90
32600;DHT22;19277;51.778;7.912;2023-03-01T06:41:59;20.20;80.10
32600;DHT22;19277;51.778;7.912;2023-03-01T06:44:25;20.20;80.10
32600;DHT22;19277;51.778;7.912;2023-03-01T06:46:51;20.20;80.10
32600;DHT22;19277;51.778;7.912;2023-03-01T06:49:17;20.20;80.10
32600;DHT22;19277;51.778;7.912;2023-03-01T06:51:43;20.30;80.10
32600;DHT22;19277;51.778;7.912;2023-03-01T06:54:09;20.30;80.00
32600;DHT22;19277;51.778;7.912;2023-03-01T06:56:35;20.30;79.90
32600;DHT22;19277;51.778;7.912;2023-03-01T06:59:02;20.50;79.90
32600;DHT22;19277;51.778;7.912;2023-03-01T07:01:29;20.50;79.80
32600;DHT22;19277;51.778;7.912;2023-03-01T07:03:54;20.60;79.60
32600;DHT22;19277;51.778;7.912;2023-03-01T07:06:21;20.70;79.50
32600;DHT22;19277;51.778;7.912;2023-03-01T07:08:46;20.80;79.30
32600;DHT22;19277;51.778;7.912;2023-03-01T07:11:12;20.80;79.10
32600;DHT22;19277;51.778;7.912;2023-03-01T07:13:38;20.90;78.90
32600;DHT22;19277;51.778;7.912;2023-03-01T07:16:04;20.90;78.80
32600;DHT22;19277;51.778;7.912;2023-03-01T07:18:30;21.00;78.70
32600;DHT22;19277;51.778;7.912;2023-03-01T07:20:55;21.00;78.50
32600;DHT22;19277;51.778;7.912;2023-03-01T07:23:21;21.10;78.40
32600;DHT22;19277;51.778;7.912;2023-03-01T07:25:54;21.10;78.30
32600;DHT22;19277;51.778;7.912;2023-03-01T07:28:20;21.10;78.20
32600;DHT22;19277;51.778;7.912;2023-03-01T07:30:46;21.20;78.10
32600;DHT22;19277;51.778;7.912;2023-03-01T07:33:11;21.20;78.00
32600;DHT22;19277;51.778;7.912;2023-03-01T07:35:37;21.20;78.00
32600;DHT22;19277;51.778;7.912;2023-03-01T07:38:02;21.20;77.90
32600;DHT22;19277;51.778;7.912;2023-03-01T07:40:28;21.20;77.80
32600;DHT22;19277;51.778;7.912;2023-03-01T07:42:57;21.20;77.70
32600;DHT22;19277;51.778;7.912;2023-03-01T07:45:24;21.20;77.50
32600;DHT22;19277;51.778;7.912;2023-03-01T07:47:51;21.20;77.40
32600;DHT22;19277;51.778;7.912;2023-03-01T07:50:17;21.20;77.20
32600;DHT22;19277;51.778;7.912;2023-03-01T07:52:45;21.10;77.10
32600;DHT22;19277;51.778;7.912;2023-03-01T07:55:11;21.10;77.00
32600;DHT22;19277;51.778;7.912;2023-03-01T07:57:37;19.30;47.20
32600;DHT22;19277;51.778;7.912;2023-03-01T08:00:03;15.40;45.50
32600;DHT22;19277;51.778;7.912;2023-03-01T08:02:29;12.80;51.00
32600;DHT22;19277;51.778;7.912;2023-03-01T08:04:54;11.00;53.70
32600;DHT22;19277;51.778;7.912;2023-03-01T08:07:20;9.80;57.40
32600;DHT22;19277;51.778;7.912;2023-03-01T08:09:45;8.80;58.50
32600;DHT22;19277;51.778;7.912;2023-03-01T08:12:11;8.00;59.90
32600;DHT22;19277;51.778;7.912;2023-03-01T08:14:37;7.40;62.40
32600;DHT22;19277;51.778;7.912;2023-03-01T08:17:02;7.00;61.50
32600;DHT22;19277;51.778;7.912;2023-03-01T08:19:28;6.70;63.60
32600;DHT22;19277;51.778;7.912;2023-03-01T08:21:55;6.50;63.50
32600;DHT22;19277;51.778;7.912;2023-03-01T08:24:24;6.40;64.30
32600;DHT22;19277;51.778;7.912;2023-03-01T08:26:50;6.30;65.70
32600;DHT22;19277;51.778;7.912;2023-03-01T08:29:15;6.90;79.00
32600;DHT22;19277;51.778;7.912;2023-03-01T08:31:41;8.50;91.30
32600;DHT22;19277;51.778;7.912;2023-03-01T08:34:13;10.20;88.40
32600;DHT22;19277;51.778;7.912;2023-03-01T08:36:40;11.80;85.90
32600;DHT22;19277;51.778;7.912;2023-03-01T08:39:08;13.00;82.70
32600;DHT22;19277;51.778;7.912;2023-03-01T08:41:34;14.00;80.80
32600;DHT22;19277;51.778;7.912;2023-03-01T08:44:00;14.80;77.60
32600;DHT22;19277;51.778;7.912;2023-03-01T08:46:34;15.50;75.80
32600;DHT22;19277;51.778;7.912;2023-03-01T08:49:19;16.00;74.70
32600;DHT22;19277;51.778;7.912;2023-03-01T08:51:45;16.50;74.00
32600;DHT22;19277;51.778;7.912;2023-03-01T08:54:13;16.90;73.30
32600;DHT22;19277;51.778;7.912;2023-03-01T08:56:40;17.20;72.90
32600;DHT22;19277;51.778;7.912;2023-03-01T08:59:06;17.50;72.60
32600;DHT22;19277;51.778;7.912;2023-03-01T09:01:32;17.70;72.40
32600;DHT22;19277;51.778;7.912;2023-03-01T09:03:57;17.90;72.10
32600;DHT22;19277;51.778;7.912;2023-03-01T09:06:23;18.10;71.90
32600;DHT22;19277;51.778;7.912;2023-03-01T09:08:50;18.30;71.70
32600;DHT22;19277;51.778;7.912;2023-03-01T09:11:19;18.50;71.70
32600;DHT22;19277;51.778;7.912;2023-03-01T09:13:46;18.60;71.50
32600;DHT22;19277;51.778;7.912;2023-03-01T09:16:14;18.70;71.30
32600;DHT22;19277;51.778;7.912;2023-03-01T09:18:40;18.90;71.30
32600;DHT22;19277;51.778;7.912;2023-03-01T09:21:10;19.10;71.90
32600;DHT22;19277;51.778;7.912;2023-03-01T09:23:38;19.30;71.50
32600;DHT22;19277;51.778;7.912;2023-03-01T09:26:09;19.40;71.50
32600;DHT22;19277;51.778;7.912;2023-03-01T09:28:36;19.50;71.40
32600;DHT22;19277;51.778;7.912;2023-03-01T09:31:03;19.60;71.30
32600;DHT22;19277;51.778;7.912;2023-03-01T09:33:30;19.70;71.20
32600;DHT22;19277;51.778;7.912;2023-03-01T09:35:58;19.80;71.30
32600;DHT22;19277;51.778;7.912;2023-03-01T09:38:23;19.80;71.30
32600;DHT22;19277;51.778;7.912;2023-03-01T09:40:49;19.90;71.20
32600;DHT22;19277;51.778;7.912;2023-03-01T09:43:47;19.90;71.20
32600;DHT22;19277;51.778;7.912;2023-03-01T09:46:20;20.00;71.20
32600;DHT22;19277;51.778;7.912;2023-03-01T09:49:09;20.10;71.20
32600;DHT22;19277;51.778;7.912;2023-03-01T09:51:36;20.10;71.10
32600;DHT22;19277;51.778;7.912;2023-03-01T09:54:03;20.20;71.10
32600;DHT22;19277;51.778;7.912;2023-03-01T09:59:27;20.30;71.20
32600;DHT22;19277;51.778;7.912;2023-03-01T10:02:24;20.40;71.40
32600;DHT22;19277;51.778;7.912;2023-03-01T10:04:55;20.40;71.40
32600;DHT22;19277;51.778;7.912;2023-03-01T10:07:46;20.50;71.20
32600;DHT22;19277;51.778;7.912;2023-03-01T10:10:42;20.50;71.30
32600;DHT22;19277;51.778;7.912;2023-03-01T10:13:25;20.60;71.30
32600;DHT22;19277;51.778;7.912;2023-03-01T10:15:55;20.60;71.20
32600;DHT22;19277;51.778;7.912;2023-03-01T10:18:26;20.60;71.20
32600;DHT22;19277;51.778;7.912;2023-03-01T10:20:55;20.60;71.20
32600;DHT22;19277;51.778;7.912;2023-03-01T10:23:24;20.70;71.30
32600;DHT22;19277;51.778;7.912;2023-03-01T10:26:25;20.70;71.30
32600;DHT22;19277;51.778;7.912;2023-03-01T10:31:34;20.80;71.50
32600;DHT22;19277;51.778;7.912;2023-03-01T10:34:02;20.80;72.00
32600;DHT22;19277;51.778;7.912;2023-03-01T10:36:33;20.80;71.40
32600;DHT22;19277;51.778;7.912;2023-03-01T10:38:59;20.80;71.50
32600;DHT22;19277;51.778;7.912;2023-03-01T10:41:26;20.80;72.20
32600;DHT22;19277;51.778;7.912;2023-03-01T10:43:57;20.90;71.40
32600;DHT22;19277;51.778;7.912;2023-03-01T10:46:25;20.90;71.50
32600;DHT22;19277;51.778;7.912;2023-03-01T10:49:07;20.90;71.70
32600;DHT22;19277;51.778;7.912;2023-03-01T10:51:36;20.90;71.90
32600;DHT22;19277;51.778;7.912;2023-03-01T10:54:03;20.90;72.00
32600;DHT22;19277;51.778;7.912;2023-03-01T10:56:46;20.90;71.80
32600;DHT22;19277;51.778;7.912;2023-03-01T10:59:22;21.00;71.90
32600;DHT22;19277;51.778;7.912;2023-03-01T11:02:03;21.00;71.80
32600;DHT22;19277;51.778;7.912;2023-03-01T11:04:28;21.00;71.50
32600;DHT22;19277;51.778;7.912;2023-03-01T11:06:59;21.00;71.50
32600;DHT22;19277;51.778;7.912;2023-03-01T11:09:25;21.00;71.50
32600;DHT22;19277;51.778;7.912;2023-03-01T11:11:56;21.00;71.40
32600;DHT22;19277;51.778;7.912;2023-03-01T11:14:26;21.00;71.30
32600;DHT22;19277;51.778;7.912;2023-03-01T11:17:05;21.00;71.20
32600;DHT22;19277;51.778;7.912;2023-03-01T11:19:31;21.00;70.80
32600;DHT22;19277;51.778;7.912;2023-03-01T11:22:05;21.00;70.20
32600;DHT22;19277;51.778;7.912;2023-03-01T11:24:42;21.00;69.20
32600;DHT22;19277;51.778;7.912;2023-03-01T11:27:26;21.00;70.90
32600;DHT22;19277;51.778;7.912;2023-03-01T11:29:57;21.00;70.60
32600;DHT22;19277;51.778;7.912;2023-03-01T11:32:26;21.00;70.80
32600;DHT22;19277;51.778;7.912;2023-03-01T11:35:15;21.00;70.80
32600;DHT22;19277;51.778;7.912;2023-03-01T11:40:47;21.00;69.50
32600;DHT22;19277;51.778;7.912;2023-03-01T11:43:27;20.90;69.70
32600;DHT22;19277;51.778;7.912;2023-03-01T11:51:45;20.90;70.50
32600;DHT22;19277;51.778;7.912;2023-03-01T11:54:39;20.90;71.30
32600;DHT22;19277;51.778;7.912;2023-03-01T12:14:05;21.00;72.20
32600;DHT22;19277;51.778;7.912;2023-03-01T12:36:36;21.20;71.20
32600;DHT22;19277;51.778;7.912;2023-03-01T12:39:25;21.20;72.30
32600;DHT22;19277;51.778;7.912;2023-03-01T12:44:44;21.30;71.50
32600;DHT22;19277;51.778;7.912;2023-03-01T12:47:39;19.90;46.80
32600;DHT22;19277;51.778;7.912;2023-03-01T12:50:26;17.20;46.30
32600;DHT22;19277;51.778;7.912;2023-03-01T12:52:56;15.20;48.90
32600;DHT22;19277;51.778;7.912;2023-03-01T12:55:35;14.00;49.80
32600;DHT22;19277;51.778;7.912;2023-03-01T12:58:24;13.10;52.00
32600;DHT22;19277;51.778;7.912;2023-03-01T13:04:18;12.40;52.80
32600;DHT22;19277;51.778;7.912;2023-03-01T13:07:06;12.20;52.40
32600;DHT22;19277;51.778;7.912;2023-03-01T13:12:00;11.60;52.50
32600;DHT22;19277;51.778;7.912;2023-03-01T13:16:52;11.60;59.40
32600;DHT22;19277;51.778;7.912;2023-03-01T13:21:46;13.60;65.50
32600;DHT22;19277;51.778;7.912;2023-03-01T13:34:53;17.70;63.90
32600;DHT22;19277;51.778;7.912;2023-03-01T13:37:26;18.10;64.00
32600;DHT22;19277;51.778;7.912;2023-03-01T13:39:54;18.40;63.60
32600;DHT22;19277;51.778;7.912;2023-03-01T13:42:39;18.60;63.50
32600;DHT22;19277;51.778;7.912;2023-03-01T13:45:20;18.90;63.60
32600;DHT22;19277;51.778;7.912;2023-03-01T13:47:51;19.10;63.60
32600;DHT22;19277;51.778;7.912;2023-03-01T13:50:24;19.30;64.10
32600;DHT22;19277;51.778;7.912;2023-03-01T13:52:53;19.50;63.90
32600;DHT22;19277;51.778;7.912;2023-03-01T13:55:24;19.60;64.20
32600;DHT22;19277;51.778;7.912;2023-03-01T13:57:55;19.70;64.20
32600;DHT22;19277;51.778;7.912;2023-03-01T14:00:32;19.90;64.70
32600;DHT22;19277;51.778;7.912;2023-03-01T14:05:39;20.00;65.10
32600;DHT22;19277;51.778;7.912;2023-03-01T14:08:22;20.10;64.70
32600;DHT22;19277;51.778;7.912;2023-03-01T14:19:25;20.40;65.20
32600;DHT22;19277;51.778;7.912;2023-03-01T14:24:46;20.60;65.30
32600;DHT22;19277;51.778;7.912;2023-03-01T14:27:13;20.60;65.50
32600;DHT22;19277;51.778;7.912;2023-03-01T14:29:40;20.70;65.30
32600;DHT22;19277;51.778;7.912;2023-03-01T14:32:20;20.70;65.80
32600;DHT22;19277;51.778;7.912;2023-03-01T14:34:49;20.70;66.00
32600;DHT22;19277;51.778;7.912;2023-03-01T14:37:31;20.80;66.10
32600;DHT22;19277;51.778;7.912;2023-03-01T14:39:58;20.80;66.00
32600;DHT22;19277;51.778;7.912;2023-03-01T14:42:28;20.80;66.20
32600;DHT22;19277;51.778;7.912;2023-03-01T14:44:56;20.80;66.20
32600;DHT22;19277;51.778;7.912;2023-03-01T14:47:28;20.90;66.30
32600;DHT22;19277;51.778;7.912;2023-03-01T14:50:02;20.90;66.40
32600;DHT22;19277;51.778;7.912;2023-03-01T14:52:35;20.90;66.60
32600;DHT22;19277;51.778;7.912;2023-03-01T14:55:05;21.00;66.70
32600;DHT22;19277;51.778;7.912;2023-03-01T14:57:31;21.00;66.60
32600;DHT22;19277;51.778;7.912;2023-03-01T14:59:59;21.00;66.70
32600;DHT22;19277;51.778;7.912;2023-03-01T15:02:30;21.00;66.70
32600;DHT22;19277;51.778;7.912;2023-03-01T15:04:58;21.10;67.00
32600;DHT22;19277;51.778;7.912;2023-03-01T15:07:36;21.10;67.00
32600;DHT22;19277;51.778;7.912;2023-03-01T15:10:04;21.00;66.90
32600;DHT22;19277;51.778;7.912;2023-03-01T15:12:35;21.10;67.10
32600;DHT22;19277;51.778;7.912;2023-03-01T15:17:55;21.10;67.20
32600;DHT22;19277;51.778;7.912;2023-03-01T15:20:24;21.10;67.50
32600;DHT22;19277;51.778;7.912;2023-03-01T15:22:51;21.10;67.60
32600;DHT22;19277;51.778;7.912;2023-03-01T15:25:20;21.10;67.70
32600;DHT22;19277;51.778;7.912;2023-03-01T15:27:47;21.20;67.80
32600;DHT22;19277;51.778;7.912;2023-03-01T15:30:21;21.10;67.70
32600;DHT22;19277;51.778;7.912;2023-03-01T15:32:48;21.10;67.70
32600;DHT22;19277;51.778;7.912;2023-03-01T15:38:28;21.10;68.00
32600;DHT22;19277;51.778;7.912;2023-03-01T15:40:54;21.20;68.20
32600;DHT22;19277;51.778;7.912;2023-03-01T15:43:41;21.20;68.20
32600;DHT22;19277;51.778;7.912;2023-03-01T15:46:28;21.20;68.10
32600;DHT22;19277;51.778;7.912;2023-03-01T15:49:00;21.20;68.40
32600;DHT22;19277;51.778;7.912;2023-03-01T15:51:37;21.20;68.60
32600;DHT22;19277;51.778;7.912;2023-03-01T15:54:06;21.20;68.70
32600;DHT22;19277;51.778;7.912;2023-03-01T15:56:34;21.20;68.70
32600;DHT22;19277;51.778;7.912;2023-03-01T15:59:01;21.20;68.90
32600;DHT22;19277;51.778;7.912;2023-03-01T16:01:28;21.20;69.00
32600;DHT22;19277;51.778;7.912;2023-03-01T16:03:54;21.20;69.60
32600;DHT22;19277;51.778;7.912;2023-03-01T16:06:19;21.20;69.10
32600;DHT22;19277;51.778;7.912;2023-03-01T16:08:45;21.20;69.10
32600;DHT22;19277;51.778;7.912;2023-03-01T16:11:17;21.20;68.90
32600;DHT22;19277;51.778;7.912;2023-03-01T16:13:44;21.20;69.00
32600;DHT22;19277;51.778;7.912;2023-03-01T16:16:11;21.20;69.20
32600;DHT22;19277;51.778;7.912;2023-03-01T16:18:46;21.20;69.20
32600;DHT22;19277;51.778;7.912;2023-03-01T16:21:14;21.20;69.30
32600;DHT22;19277;51.778;7.912;2023-03-01T16:23:42;21.20;69.40
32600;DHT22;19277;51.778;7.912;2023-03-01T16:26:07;21.20;69.50
32600;DHT22;19277;51.778;7.912;2023-03-01T16:28:33;21.20;69.60
32600;DHT22;19277;51.778;7.912;2023-03-01T16:30:59;21.20;69.70
32600;DHT22;19277;51.778;7.912;2023-03-01T16:33:26;21.20;70.30
32600;DHT22;19277;51.778;7.912;2023-03-01T16:35:52;21.20;69.90
32600;DHT22;19277;51.778;7.912;2023-03-01T16:38:18;21.20;69.80
32600;DHT22;19277;51.778;7.912;2023-03-01T16:40:48;21.20;69.80
32600;DHT22;19277;51.778;7.912;2023-03-01T16:43:14;21.20;69.80
32600;DHT22;19277;51.778;7.912;2023-03-01T16:45:40;21.20;70.10
32600;DHT22;19277;51.778;7.912;2023-03-01T16:48:10;21.20;70.20
32600;DHT22;19277;51.778;7.912;2023-03-01T16:50:36;21.20;70.20
32600;DHT22;19277;51.778;7.912;2023-03-01T16:53:02;21.20;70.30
32600;DHT22;19277;51.778;7.912;2023-03-01T16:55:28;21.20;70.40
32600;DHT22;19277;51.778;7.912;2023-03-01T16:57:53;21.20;70.40
32600;DHT22;19277;51.778;7.912;2023-03-01T17:00:19;21.20;70.50
32600;DHT22;19277;51.778;7.912;2023-03-01T17:02:46;21.20;70.50
32600;DHT22;19277;51.778;7.912;2023-03-01T17:05:11;21.20;70.50
32600;DHT22;19277;51.778;7.912;2023-03-01T17:07:37;21.20;70.60
32600;DHT22;19277;51.778;7.912;2023-03-01T17:10:05;21.20;70.60
32600;DHT22;19277;51.778;7.912;2023-03-01T17:12:31;21.20;70.70
32600;DHT22;19277;51.778;7.912;2023-03-01T17:14:57;21.20;70.70
32600;DHT22;19277;51.778;7.912;2023-03-01T17:17:23;21.20;70.70
32600;DHT22;19277;51.778;7.912;2023-03-01T17:19:48;21.20;70.80
32600;DHT22;19277;51.778;7.912;2023-03-01T17:22:14;21.20;70.80
32600;DHT22;19277;51.778;7.912;2023-03-01T17:24:40;21.20;70.80
32600;DHT22;19277;51.778;7.912;2023-03-01T17:27:07;21.10;70.80
32600;DHT22;19277;51.778;7.912;2023-03-01T17:29:33;21.10;70.80
32600;DHT22;19277;51.778;7.912;2023-03-01T17:31:58;21.10;70.80
32600;DHT22;19277;51.778;7.912;2023-03-01T17:34:24;21.10;70.90
32600;DHT22;19277;51.778;7.912;2023-03-01T17:36:50;21.10;71.00